createdAt,value
2022-10-04T00:00:36.943Z,25.30
2022-10-04T00:03:26.497Z,24.30
2022-10-04T00:05:56.643Z,29.35
2022-10-04T00:08:23.406Z,23.67
2022-10-04T00:11:00.351Z,28.92
2022-10-04T00:13:29.989Z,29.75
2022-10-04T00:15:56.872Z,27.75
2022-10-04T00:18:31.707Z,25.98
2022-10-04T00:21:01.378Z,24.30
2022-10-04T00:23:36.518Z,27.77
2022-10-04T00:26:06.570Z,28.20
2022-10-04T00:28:36.401Z,28.27
2022-10-04T00:31:10.796Z,34.13
2022-10-04T00:33:47.964Z,29.88
2022-10-04T00:36:23.933Z,35.88
2022-10-04T00:39:08.643Z,30.10
2022-10-04T00:41:38.252Z,32.03
2022-10-04T00:44:10.421Z,29.83
2022-10-04T00:46:40.836Z,33.38
2022-10-04T00:49:10.564Z,31.52
2022-10-04T00:51:43.865Z,33.83
2022-10-04T00:54:29.165Z,35.38
2022-10-04T00:57:00.949Z,33.80
2022-10-04T00:59:31.430Z,43.28
2022-10-04T01:02:21.859Z,33.22
2022-10-04T01:05:00.436Z,36.78
2022-10-04T01:07:43.589Z,35.88
2022-10-04T01:10:33.599Z,35.05
2022-10-04T01:13:23.314Z,38.42
2022-10-04T01:16:11.877Z,37.58
2022-10-04T01:18:38.807Z,35.50
2022-10-04T01:21:23.317Z,36.40
2022-10-04T01:23:57.151Z,32.38
2022-10-04T01:26:29.165Z,36.17
2022-10-04T01:29:11.900Z,35.17
2022-10-04T01:31:48.768Z,34.35
2022-10-04T01:34:19.115Z,34.15
2022-10-04T01:36:47.434Z,38.47
2022-10-04T01:39:16.057Z,33.55
2022-10-04T01:41:53.182Z,33.13
2022-10-04T01:44:40.790Z,35.55
2022-10-04T01:47:23.511Z,34.33
2022-10-04T01:49:52.415Z,32.70
2022-10-04T01:52:30.311Z,36.50
2022-10-04T01:55:07.266Z,35.00
2022-10-04T01:57:38.707Z,34.60
2022-10-04T02:00:12.348Z,37.38
2022-10-04T02:02:45.000Z,35.83
2022-10-04T02:05:17.842Z,34.70
2022-10-04T02:07:46.561Z,31.50
2022-10-04T02:10:20.022Z,34.92
2022-10-04T02:12:49.892Z,36.70
2022-10-04T02:15:20.127Z,32.47
2022-10-04T02:17:48.083Z,32.10
2022-10-04T02:20:21.542Z,34.22
2022-10-04T02:22:52.814Z,30.73
2022-10-04T02:25:20.731Z,37.35
2022-10-04T02:27:47.736Z,33.95
2022-10-04T02:30:14.753Z,39.47
2022-10-04T02:32:59.875Z,33.95
2022-10-04T02:35:29.537Z,35.65
2022-10-04T02:38:13.674Z,37.20
2022-10-04T02:41:14.305Z,33.95
2022-10-04T02:44:03.772Z,35.75
2022-10-04T02:46:51.468Z,35.15
2022-10-04T02:49:30.289Z,35.45
2022-10-04T02:52:05.936Z,33.42
2022-10-04T02:54:43.135Z,39.85
2022-10-04T02:57:22.473Z,34.25
2022-10-04T02:59:50.291Z,34.60
2022-10-04T03:02:35.011Z,36.53
2022-10-04T03:05:09.330Z,37.53
2022-10-04T03:07:38.288Z,33.08
2022-10-04T03:10:12.823Z,39.72
2022-10-04T03:12:40.926Z,36.42
2022-10-04T03:15:10.995Z,37.97
2022-10-04T03:17:39.950Z,36.13
2022-10-04T03:20:13.837Z,35.80
2022-10-04T03:22:46.919Z,37.22
2022-10-04T03:25:29.885Z,38.13
2022-10-04T03:28:02.138Z,36.25
2022-10-04T03:30:31.884Z,33.63
2022-10-04T03:32:59.848Z,37.78
2022-10-04T03:35:39.369Z,38.97
2022-10-04T03:38:09.192Z,38.63
2022-10-04T03:40:38.571Z,35.25
2022-10-04T03:43:06.615Z,33.25
2022-10-04T03:45:35.232Z,34.00
2022-10-04T03:48:06.505Z,34.67
2022-10-04T03:50:46.256Z,35.20
2022-10-04T03:53:30.167Z,32.50
2022-10-04T03:56:03.420Z,32.97
2022-10-04T03:58:31.935Z,36.45
2022-10-04T04:01:09.863Z,32.97
2022-10-04T04:03:57.274Z,34.55
2022-10-04T04:06:25.504Z,34.70
2022-10-04T04:08:55.353Z,34.47
2022-10-04T04:11:27.728Z,35.60
2022-10-04T04:14:07.484Z,34.22
2022-10-04T04:16:36.408Z,32.63
2022-10-04T04:19:10.063Z,30.90
2022-10-04T04:21:37.411Z,32.50
2022-10-04T04:24:25.748Z,32.10
2022-10-04T04:26:59.526Z,27.70
2022-10-04T04:29:51.871Z,31.63
2022-10-04T04:32:25.672Z,28.42
2022-10-04T04:34:57.138Z,26.38
2022-10-04T04:37:24.201Z,28.05
2022-10-04T04:39:54.872Z,28.02
2022-10-04T04:42:34.878Z,28.30
2022-10-04T04:45:15.256Z,33.53
2022-10-04T04:48:03.614Z,30.27
2022-10-04T04:50:36.622Z,27.83
2022-10-04T04:53:16.093Z,26.48
2022-10-04T04:56:02.769Z,27.42
2022-10-04T04:58:36.402Z,28.08
2022-10-04T05:01:23.175Z,27.98
2022-10-04T05:04:08.659Z,31.27
2022-10-04T05:06:37.585Z,28.48
2022-10-04T05:09:05.623Z,29.92
2022-10-04T05:11:37.571Z,30.75
2022-10-04T05:16:51.505Z,32.30
2022-10-04T05:19:37.587Z,28.08
2022-10-04T05:22:11.381Z,29.17
2022-10-04T05:24:45.411Z,27.75
2022-10-04T05:27:28.917Z,29.08
2022-10-04T05:30:10.327Z,27.52
2022-10-04T05:33:01.856Z,27.65
2022-10-04T05:35:30.026Z,33.03
2022-10-04T05:38:19.486Z,28.25
2022-10-04T05:41:06.364Z,28.98
2022-10-04T05:43:45.918Z,28.48
2022-10-04T05:46:21.546Z,29.15
2022-10-04T05:48:56.287Z,27.08
2022-10-04T05:51:29.337Z,26.42
2022-10-04T05:54:00.668Z,29.20
2022-10-04T05:56:55.257Z,28.88
2022-10-04T06:00:07.164Z,29.45
2022-10-04T06:02:58.754Z,27.25
2022-10-04T06:05:42.772Z,29.08
2022-10-04T06:08:32.403Z,25.98
2022-10-04T06:11:23.076Z,30.08
2022-10-04T06:14:23.836Z,27.17
2022-10-04T06:17:08.717Z,26.33
2022-10-04T06:20:14.347Z,29.15
2022-10-04T06:22:47.564Z,30.60
2022-10-04T06:25:31.304Z,29.73
2022-10-04T06:28:15.239Z,26.98
2022-10-04T06:31:09.432Z,27.15
2022-10-04T06:33:54.110Z,29.33
2022-10-04T06:37:18.340Z,28.85
2022-10-04T06:40:04.464Z,27.25
2022-10-04T06:42:49.028Z,27.67
2022-10-04T06:45:47.537Z,26.17
2022-10-04T06:48:14.464Z,26.67
2022-10-04T06:50:46.897Z,30.80
2022-10-04T06:53:49.166Z,25.02
2022-10-04T06:59:18.563Z,27.10
2022-10-04T07:01:58.796Z,29.38
2022-10-04T07:04:45.024Z,27.70
2022-10-04T07:07:25.011Z,28.83
2022-10-04T07:10:00.002Z,24.98
2022-10-04T07:12:29.037Z,29.92
2022-10-04T07:15:01.036Z,27.48
2022-10-04T07:17:38.634Z,27.73
2022-10-04T07:20:07.211Z,23.27
2022-10-04T07:22:53.534Z,23.00
2022-10-04T07:25:28.998Z,20.40
2022-10-04T07:28:23.407Z,28.38
2022-10-04T07:30:58.691Z,26.52
2022-10-04T07:33:28.900Z,30.17
2022-10-04T07:36:12.202Z,24.23
2022-10-04T07:38:49.084Z,21.55
2022-10-04T07:41:40.707Z,24.65
2022-10-04T07:46:46.405Z,24.33
2022-10-04T07:49:18.703Z,21.90
2022-10-04T07:52:04.339Z,21.02
2022-10-04T07:55:07.943Z,23.75
2022-10-04T07:57:49.727Z,28.65
2022-10-04T08:03:14.522Z,27.98
2022-10-04T08:06:09.902Z,34.05
2022-10-04T08:08:45.542Z,25.27
2022-10-04T08:11:27.578Z,25.20
2022-10-04T08:14:13.728Z,27.80
2022-10-04T08:16:53.621Z,24.65
2022-10-04T08:19:43.073Z,25.60
2022-10-04T08:22:33.824Z,22.55
2022-10-04T08:25:20.998Z,25.00
2022-10-04T08:28:23.965Z,22.17
2022-10-04T08:31:13.257Z,22.45
2022-10-04T08:34:25.179Z,20.33
2022-10-04T08:37:33.014Z,24.50
2022-10-04T08:40:02.575Z,21.20
2022-10-04T08:43:06.333Z,22.20
2022-10-04T08:46:15.231Z,17.13
2022-10-04T08:49:08.766Z,19.67
2022-10-04T08:51:56.351Z,19.45
2022-10-04T08:54:41.811Z,17.67
2022-10-04T08:57:15.847Z,14.60
2022-10-04T08:59:48.880Z,22.30
2022-10-04T09:02:15.600Z,16.10
2022-10-04T09:04:57.975Z,17.15
2022-10-04T09:07:51.770Z,22.83
2022-10-04T09:10:31.084Z,15.65
2022-10-04T09:13:22.638Z,21.92
2022-10-04T09:15:52.257Z,19.15
2022-10-04T09:18:45.553Z,15.23
2022-10-04T09:21:35.355Z,16.83
2022-10-04T09:24:32.341Z,19.02
2022-10-04T09:27:53.682Z,16.10
2022-10-04T09:30:21.273Z,15.70
2022-10-04T09:33:08.806Z,20.02
2022-10-04T09:35:55.418Z,17.63
2022-10-04T09:38:44.366Z,16.60
2022-10-04T09:41:45.153Z,19.10
2022-10-04T09:44:33.905Z,26.25
2022-10-04T09:47:10.513Z,39.05
2022-10-04T09:50:17.440Z,21.92
2022-10-04T09:53:13.636Z,18.38
2022-10-04T09:55:53.292Z,25.33
2022-10-04T09:58:55.224Z,20.70
2022-10-04T10:04:23.077Z,26.48
2022-10-04T10:07:04.741Z,21.05
2022-10-04T10:12:52.733Z,23.60
2022-10-04T10:15:23.093Z,20.98
2022-10-04T10:18:15.216Z,21.17
2022-10-04T10:21:08.092Z,18.98
2022-10-04T10:23:43.988Z,16.85
2022-10-04T10:26:43.723Z,25.23
2022-10-04T10:29:26.049Z,22.67
2022-10-04T10:32:17.492Z,20.73
2022-10-04T10:34:59.217Z,19.58
2022-10-04T10:37:47.828Z,22.23
2022-10-04T10:40:45.320Z,24.30
2022-10-04T10:43:20.827Z,19.77
2022-10-04T10:46:16.570Z,23.70
2022-10-04T10:49:04.317Z,25.13
2022-10-04T10:51:58.210Z,20.60
2022-10-04T10:55:12.136Z,25.70
2022-10-04T10:57:59.077Z,22.10
2022-10-04T11:00:51.939Z,17.80
2022-10-04T11:03:51.685Z,16.20
2022-10-04T11:06:56.775Z,17.25
2022-10-04T11:09:38.450Z,16.05
2022-10-04T11:12:10.653Z,15.18
2022-10-04T11:15:15.299Z,15.70
2022-10-04T11:18:06.517Z,17.30
2022-10-04T11:21:06.641Z,19.52
2022-10-04T11:24:12.829Z,17.35
2022-10-04T11:26:42.239Z,16.33
2022-10-04T11:29:20.793Z,13.93
2022-10-04T11:32:02.091Z,13.05
2022-10-04T11:35:07.060Z,12.00
2022-10-04T11:37:36.353Z,13.93
2022-10-04T11:40:11.937Z,13.57
2022-10-04T11:42:53.979Z,23.73
2022-10-04T11:46:09.885Z,15.55
2022-10-04T11:49:14.479Z,16.08
2022-10-04T11:52:04.563Z,15.15
2022-10-04T11:54:47.906Z,17.77
2022-10-04T11:57:31.404Z,11.27
2022-10-04T12:00:23.530Z,17.20
2022-10-04T12:03:09.385Z,13.13
2022-10-04T12:05:51.239Z,15.90
2022-10-04T12:08:33.326Z,11.65
2022-10-04T12:11:05.650Z,11.60
2022-10-04T12:14:04.122Z,11.63
2022-10-04T12:16:49.455Z,12.43
2022-10-04T12:19:41.680Z,18.75
2022-10-04T12:22:26.555Z,21.30
2022-10-04T12:25:30.521Z,14.30
2022-10-04T12:28:16.020Z,12.13
2022-10-04T12:31:04.204Z,14.13
2022-10-04T12:33:54.605Z,18.55
2022-10-04T12:36:41.092Z,13.70
2022-10-04T12:39:29.597Z,15.73
2022-10-04T12:42:08.108Z,15.65
2022-10-04T12:45:00.484Z,11.45
2022-10-04T12:47:50.658Z,12.55
2022-10-04T12:50:35.558Z,12.95
2022-10-04T12:53:23.251Z,10.30
2022-10-04T12:56:22.315Z,12.98
2022-10-04T12:59:03.876Z,16.83
2022-10-04T13:02:08.707Z,11.95
2022-10-04T13:05:17.290Z,14.23
2022-10-04T13:08:32.309Z,11.88
2022-10-04T13:11:04.840Z,38.20
2022-10-04T13:13:50.091Z,14.85
2022-10-04T13:20:14.746Z,16.75
2022-10-04T13:22:57.831Z,11.82
2022-10-04T13:26:01.210Z,12.20
2022-10-04T13:28:56.485Z,12.15
2022-10-04T13:31:40.963Z,13.80
2022-10-04T13:34:36.928Z,11.48
2022-10-04T13:37:15.734Z,10.27
2022-10-04T13:39:50.849Z,8.48
2022-10-04T13:42:48.801Z,14.27
2022-10-04T13:45:37.022Z,11.95
2022-10-04T13:48:25.511Z,14.70
2022-10-04T13:51:07.276Z,11.82
2022-10-04T13:54:05.597Z,12.80
2022-10-04T13:56:37.987Z,13.95
2022-10-04T13:59:23.302Z,12.05
2022-10-04T14:02:13.596Z,11.15
2022-10-04T14:05:01.674Z,15.95
2022-10-04T14:07:37.432Z,15.35
2022-10-04T14:10:28.639Z,23.17
2022-10-04T14:13:36.419Z,14.93
2022-10-04T14:16:06.271Z,15.85
2022-10-04T14:19:02.389Z,14.98
2022-10-04T14:21:43.815Z,17.52
2022-10-04T14:24:36.476Z,15.45
2022-10-04T14:27:27.952Z,17.80
2022-10-04T14:30:28.521Z,15.88
2022-10-04T14:33:27.434Z,16.08
2022-10-04T14:35:54.314Z,16.20
2022-10-04T14:39:02.490Z,17.13
2022-10-04T14:41:32.168Z,18.08
2022-10-04T14:44:45.231Z,15.13
2022-10-04T14:47:30.349Z,15.27
2022-10-04T14:50:03.123Z,14.25
2022-10-04T14:53:01.974Z,20.70
2022-10-04T14:55:54.786Z,12.52
2022-10-04T14:58:53.877Z,14.20
2022-10-04T15:01:23.203Z,16.52
2022-10-04T15:04:15.719Z,17.23
2022-10-04T15:06:58.352Z,14.90
2022-10-04T15:09:57.180Z,15.00
2022-10-04T15:13:11.158Z,14.05
2022-10-04T15:16:00.478Z,13.65
2022-10-04T15:18:39.597Z,16.77
2022-10-04T15:21:34.455Z,20.30
2022-10-04T15:24:27.628Z,19.58
2022-10-04T15:27:09.806Z,23.23
2022-10-04T15:30:11.007Z,24.95
2022-10-04T15:32:56.553Z,29.60
2022-10-04T15:35:48.352Z,18.30
2022-10-04T15:41:46.077Z,22.80
2022-10-04T15:44:28.258Z,15.45
2022-10-04T15:47:30.989Z,18.88
2022-10-04T15:50:21.305Z,15.48
2022-10-04T15:53:03.162Z,19.70
2022-10-04T15:55:35.657Z,16.77
2022-10-04T15:58:39.744Z,15.77
2022-10-04T16:01:43.763Z,19.35
2022-10-04T16:04:32.112Z,17.83
2022-10-04T16:07:28.002Z,19.05
2022-10-04T16:10:01.723Z,18.23
2022-10-04T16:12:50.121Z,58.22
2022-10-04T16:15:36.899Z,21.30
2022-10-04T16:18:31.302Z,16.75
2022-10-04T16:21:01.115Z,15.70
2022-10-04T16:23:36.396Z,16.58
2022-10-04T16:26:09.557Z,20.17
2022-10-04T16:28:56.205Z,16.63
2022-10-04T16:31:44.045Z,16.98
2022-10-04T16:34:45.994Z,15.85
2022-10-04T16:37:24.688Z,23.33
2022-10-04T16:40:05.623Z,24.77
2022-10-04T16:42:47.369Z,16.87
2022-10-04T16:45:38.518Z,13.57
2022-10-04T16:48:15.776Z,19.30
2022-10-04T16:51:26.847Z,27.55
2022-10-04T16:54:04.755Z,17.10
2022-10-04T16:57:00.526Z,19.60
2022-10-04T16:59:39.167Z,18.08
2022-10-04T17:02:29.315Z,20.38
2022-10-04T17:05:13.776Z,21.70
2022-10-04T17:08:04.831Z,17.98
2022-10-04T17:10:49.587Z,23.67
2022-10-04T17:13:27.774Z,18.80
2022-10-04T17:16:06.754Z,21.65
2022-10-04T17:19:10.591Z,19.58
2022-10-04T17:22:02.861Z,19.42
2022-10-04T17:24:45.037Z,20.48
2022-10-04T17:27:34.118Z,19.73
2022-10-04T17:30:18.360Z,21.65
2022-10-04T17:32:51.203Z,23.33
2022-10-04T17:35:46.506Z,22.08
2022-10-04T17:38:18.999Z,26.30
2022-10-04T17:41:15.038Z,23.73
2022-10-04T17:44:06.804Z,22.55
2022-10-04T17:46:47.545Z,24.60
2022-10-04T17:50:02.105Z,24.67
2022-10-04T17:52:59.048Z,27.92
2022-10-04T17:55:35.840Z,30.27
2022-10-04T17:58:30.477Z,24.70
2022-10-04T18:01:08.048Z,25.92
2022-10-04T18:03:43.961Z,27.55
2022-10-04T18:06:39.872Z,25.27
2022-10-04T18:09:19.413Z,30.35
2022-10-04T18:12:14.544Z,21.55
2022-10-04T18:15:07.246Z,28.33
2022-10-04T18:17:48.441Z,22.20
2022-10-04T18:20:33.805Z,26.73
2022-10-04T18:23:02.902Z,26.08
2022-10-04T18:25:32.083Z,20.85
2022-10-04T18:28:07.528Z,26.73
2022-10-04T18:30:51.367Z,27.23
2022-10-04T18:33:44.256Z,25.55
2022-10-04T18:36:46.098Z,25.75
2022-10-04T18:39:13.444Z,27.52
2022-10-04T18:41:53.270Z,27.10
2022-10-04T18:44:29.676Z,21.98
2022-10-04T18:46:59.488Z,25.13
2022-10-04T18:49:31.077Z,26.38
2022-10-04T18:52:09.900Z,23.63
2022-10-04T18:54:36.589Z,20.90
2022-10-04T18:57:27.433Z,23.70
2022-10-04T19:00:32.092Z,24.52
2022-10-04T19:03:31.098Z,21.13
2022-10-04T19:06:30.572Z,24.63
2022-10-04T19:09:23.649Z,23.63
2022-10-04T19:12:04.985Z,22.77
2022-10-04T19:14:47.945Z,24.65
2022-10-04T19:17:26.398Z,25.70
2022-10-04T19:20:19.085Z,25.13
2022-10-04T19:23:17.505Z,24.80
2022-10-04T19:26:17.682Z,25.77
2022-10-04T19:28:38.553Z,24.13
2022-10-04T19:31:17.548Z,24.20
2022-10-04T19:33:59.287Z,24.48
2022-10-04T19:36:50.299Z,23.88
2022-10-04T19:39:41.711Z,24.65
2022-10-04T19:42:19.221Z,22.75
2022-10-04T19:45:04.976Z,24.98
2022-10-04T19:47:35.224Z,23.25
2022-10-04T19:50:05.328Z,21.70
2022-10-04T19:52:34.848Z,23.88
2022-10-04T19:55:33.961Z,23.65
2022-10-04T19:58:03.831Z,22.25
2022-10-04T20:00:31.320Z,22.10
2022-10-04T20:02:58.085Z,20.48
2022-10-04T20:05:25.304Z,28.30
2022-10-04T20:07:57.337Z,21.00
2022-10-04T20:10:37.307Z,23.80
2022-10-04T20:13:21.401Z,23.80
2022-10-04T20:15:53.926Z,23.08
2022-10-04T20:18:32.893Z,25.35
2022-10-04T20:21:00.235Z,23.10
2022-10-04T20:23:49.627Z,26.33
2022-10-04T20:26:53.569Z,22.77
2022-10-04T20:29:39.274Z,23.10
2022-10-04T20:32:11.027Z,25.70
2022-10-04T20:34:37.666Z,23.40
2022-10-04T20:37:09.076Z,27.00
2022-10-04T20:39:41.899Z,23.75
2022-10-04T20:42:22.804Z,22.92
2022-10-04T20:44:56.663Z,18.85
2022-10-04T20:47:47.277Z,21.10
2022-10-04T20:50:35.462Z,21.42
2022-10-04T20:53:14.082Z,23.45
2022-10-04T20:55:41.320Z,27.98
2022-10-04T20:58:34.978Z,23.60
2022-10-04T21:01:38.081Z,26.73
2022-10-04T21:04:35.005Z,25.33
2022-10-04T21:07:06.962Z,22.85
2022-10-04T21:09:36.900Z,23.80
2022-10-04T21:12:05.147Z,24.63
2022-10-04T21:14:33.803Z,24.63
2022-10-04T21:17:05.243Z,23.60
2022-10-04T21:19:35.825Z,28.58
2022-10-04T21:22:05.258Z,24.75
2022-10-04T21:24:35.845Z,28.10
2022-10-04T21:27:03.239Z,25.50
2022-10-04T21:29:30.022Z,26.45
2022-10-04T21:31:57.619Z,25.33
2022-10-04T21:34:51.457Z,25.75
2022-10-04T21:37:11.370Z,23.70
2022-10-04T21:39:38.124Z,26.20
2022-10-04T21:42:05.430Z,27.02
2022-10-04T21:44:32.185Z,26.33
2022-10-04T21:46:58.962Z,26.13
2022-10-04T21:49:26.064Z,26.33
2022-10-04T21:51:52.790Z,29.83
2022-10-04T21:54:20.175Z,25.00
2022-10-04T21:56:47.173Z,27.15
2022-10-04T21:59:14.428Z,25.75
2022-10-04T22:01:41.140Z,28.38
2022-10-04T22:04:08.132Z,27.25
2022-10-04T22:06:34.954Z,23.90
2022-10-04T22:09:01.702Z,27.88
2022-10-04T22:11:28.502Z,26.85
2022-10-04T22:13:55.185Z,24.33
2022-10-04T22:16:22.122Z,25.05
2022-10-04T22:18:48.911Z,25.73
2022-10-04T22:21:15.787Z,23.63
2022-10-04T22:23:44.550Z,24.20
2022-10-04T22:26:19.730Z,23.88
2022-10-04T22:28:49.785Z,24.65
2022-10-04T22:31:19.111Z,25.42
2022-10-04T22:33:48.742Z,25.98
2022-10-04T22:36:21.042Z,23.85
2022-10-04T22:39:11.013Z,24.92
2022-10-04T22:41:53.448Z,24.92
2022-10-04T22:44:30.234Z,23.83
2022-10-04T22:46:59.802Z,24.25
2022-10-04T22:49:30.467Z,21.95
2022-10-04T22:51:59.078Z,22.92
2022-10-04T22:54:31.280Z,22.83
2022-10-04T22:56:58.354Z,26.33
2022-10-04T22:59:35.962Z,26.67
2022-10-04T23:02:10.855Z,23.35
2022-10-04T23:04:37.737Z,21.05
2022-10-04T23:07:04.438Z,21.83
2022-10-04T23:09:31.247Z,23.20
2022-10-04T23:11:57.972Z,27.55
2022-10-04T23:14:24.838Z,24.42
2022-10-04T23:16:51.579Z,25.50
2022-10-04T23:19:20.237Z,25.65
2022-10-04T23:21:49.102Z,23.75
2022-10-04T23:24:19.907Z,22.92
2022-10-04T23:26:54.669Z,24.10
2022-10-04T23:29:23.623Z,26.67
2022-10-04T23:31:51.565Z,24.70
2022-10-04T23:34:36.996Z,22.77
2022-10-04T23:37:13.565Z,25.98
2022-10-04T23:39:40.672Z,26.77
2022-10-04T23:42:19.027Z,24.63
2022-10-04T23:44:47.997Z,24.90
2022-10-04T23:47:17.528Z,25.73
2022-10-04T23:49:45.730Z,23.73
2022-10-04T23:52:22.553Z,25.33
2022-10-04T23:54:50.851Z,28.13
2022-10-04T23:57:23.041Z,26.85
2022-10-04T23:59:50.234Z,24.33
